sensor_id;sensor_type;location;lat;lon;timestamp;P1;durP1;ratioP1;P2;durP2;ratioP2
13263;SDS011;6700;51.988;7.646;2022-09-13T00:02:15;6.13;;;5.43;;
13263;SDS011;6700;51.988;7.646;2022-09-13T00:04:42;8.93;;;5.90;;
13263;SDS011;6700;51.988;7.646;2022-09-13T00:07:09;7.37;;;6.03;;
13263;SDS011;6700;51.988;7.646;2022-09-13T00:09:36;7.30;;;6.40;;
13263;SDS011;6700;51.988;7.646;2022-09-13T00:12:03;6.93;;;6.13;;
13263;SDS011;6700;51.988;7.646;2022-09-13T00:14:34;6.83;;;5.67;;
13263;SDS011;6700;51.988;7.646;2022-09-13T00:17:01;6.37;;;5.73;;
13263;SDS011;6700;51.988;7.646;2022-09-13T00:19:28;7.20;;;5.70;;
13263;SDS011;6700;51.988;7.646;2022-09-13T00:21:55;6.47;;;5.87;;
13263;SDS011;6700;51.988;7.646;2022-09-13T00:24:22;6.73;;;5.97;;
13263;SDS011;6700;51.988;7.646;2022-09-13T00:26:48;7.30;;;6.60;;
13263;SDS011;6700;51.988;7.646;2022-09-13T00:29:15;7.20;;;5.70;;
13263;SDS011;6700;51.988;7.646;2022-09-13T00:31:44;9.07;;;5.80;;
13263;SDS011;6700;51.988;7.646;2022-09-13T00:34:14;8.30;;;6.13;;
13263;SDS011;6700;51.988;7.646;2022-09-13T00:36:41;5.77;;;5.27;;
13263;SDS011;6700;51.988;7.646;2022-09-13T00:39:09;6.70;;;5.80;;
13263;SDS011;6700;51.988;7.646;2022-09-13T00:41:36;7.80;;;5.67;;
13263;SDS011;6700;51.988;7.646;2022-09-13T00:44:41;6.30;;;5.70;;
13263;SDS011;6700;51.988;7.646;2022-09-13T00:47:11;5.97;;;5.43;;
13263;SDS011;6700;51.988;7.646;2022-09-13T00:49:40;6.40;;;5.67;;
13263;SDS011;6700;51.988;7.646;2022-09-13T00:52:11;5.90;;;5.30;;
13263;SDS011;6700;51.988;7.646;2022-09-13T00:54:41;7.93;;;5.93;;
13263;SDS011;6700;51.988;7.646;2022-09-13T00:57:16;5.50;;;5.00;;
13263;SDS011;6700;51.988;7.646;2022-09-13T00:59:47;7.73;;;6.03;;
13263;SDS011;6700;51.988;7.646;2022-09-13T01:02:22;6.90;;;6.23;;
13263;SDS011;6700;51.988;7.646;2022-09-13T01:04:49;9.73;;;6.07;;
13263;SDS011;6700;51.988;7.646;2022-09-13T01:07:16;7.03;;;5.53;;
13263;SDS011;6700;51.988;7.646;2022-09-13T01:09:44;7.83;;;5.73;;
13263;SDS011;6700;51.988;7.646;2022-09-13T01:12:16;6.17;;;5.57;;
13263;SDS011;6700;51.988;7.646;2022-09-13T01:14:46;10.80;;;5.47;;
13263;SDS011;6700;51.988;7.646;2022-09-13T01:17:14;8.87;;;5.37;;
13263;SDS011;6700;51.988;7.646;2022-09-13T01:19:42;6.40;;;5.30;;
13263;SDS011;6700;51.988;7.646;2022-09-13T01:27:35;5.87;;;5.13;;
13263;SDS011;6700;51.988;7.646;2022-09-13T01:31:02;5.93;;;5.23;;
13263;SDS011;6700;51.988;7.646;2022-09-13T01:33:45;6.17;;;5.10;;
13263;SDS011;6700;51.988;7.646;2022-09-13T01:48:04;5.80;;;5.30;;
13263;SDS011;6700;51.988;7.646;2022-09-13T01:50:49;11.17;;;5.57;;
13263;SDS011;6700;51.988;7.646;2022-09-13T01:56:21;6.50;;;5.13;;
13263;SDS011;6700;51.988;7.646;2022-09-13T01:59:05;5.90;;;5.40;;
13263;SDS011;6700;51.988;7.646;2022-09-13T02:01:49;5.93;;;5.43;;
13263;SDS011;6700;51.988;7.646;2022-09-13T02:04:35;6.80;;;5.83;;
13263;SDS011;6700;51.988;7.646;2022-09-13T02:07:11;6.63;;;6.03;;
13263;SDS011;6700;51.988;7.646;2022-09-13T02:09:48;6.63;;;4.87;;
13263;SDS011;6700;51.988;7.646;2022-09-13T02:12:23;7.37;;;5.40;;
13263;SDS011;6700;51.988;7.646;2022-09-13T02:15:26;7.00;;;5.80;;
13263;SDS011;6700;51.988;7.646;2022-09-13T02:17:59;8.77;;;5.73;;
13263;SDS011;6700;51.988;7.646;2022-09-13T02:20:37;6.17;;;5.53;;
13263;SDS011;6700;51.988;7.646;2022-09-13T02:23:12;6.43;;;5.53;;
13263;SDS011;6700;51.988;7.646;2022-09-13T02:25:46;5.70;;;5.20;;
13263;SDS011;6700;51.988;7.646;2022-09-13T02:28:15;8.77;;;6.13;;
13263;SDS011;6700;51.988;7.646;2022-09-13T02:30:48;5.90;;;5.40;;
13263;SDS011;6700;51.988;7.646;2022-09-13T02:36:16;9.13;;;5.87;;
13263;SDS011;6700;51.988;7.646;2022-09-13T02:41:26;7.47;;;6.20;;
13263;SDS011;6700;51.988;7.646;2022-09-13T02:44:04;7.20;;;6.50;;
13263;SDS011;6700;51.988;7.646;2022-09-13T02:46:56;7.13;;;6.43;;
13263;SDS011;6700;51.988;7.646;2022-09-13T02:49:43;9.17;;;6.23;;
13263;SDS011;6700;51.988;7.646;2022-09-13T02:52:32;7.20;;;5.90;;
13263;SDS011;6700;51.988;7.646;2022-09-13T02:55:28;6.17;;;5.57;;
13263;SDS011;6700;51.988;7.646;2022-09-13T02:58:09;6.47;;;5.87;;
13263;SDS011;6700;51.988;7.646;2022-09-13T03:00:37;7.97;;;6.03;;
13263;SDS011;6700;51.988;7.646;2022-09-13T03:03:05;7.00;;;5.77;;
13263;SDS011;6700;51.988;7.646;2022-09-13T03:05:36;7.93;;;7.00;;
13263;SDS011;6700;51.988;7.646;2022-09-13T03:08:04;8.20;;;6.13;;
13263;SDS011;6700;51.988;7.646;2022-09-13T03:10:40;6.47;;;5.87;;
13263;SDS011;6700;51.988;7.646;2022-09-13T03:13:52;7.13;;;5.90;;
13263;SDS011;6700;51.988;7.646;2022-09-13T03:16:52;6.30;;;5.70;;
13263;SDS011;6700;51.988;7.646;2022-09-13T03:22:40;6.23;;;5.63;;
13263;SDS011;6700;51.988;7.646;2022-09-13T03:25:59;7.03;;;6.17;;
13263;SDS011;6700;51.988;7.646;2022-09-13T03:32:05;6.70;;;6.10;;
13263;SDS011;6700;51.988;7.646;2022-09-13T03:34:45;6.57;;;5.97;;
13263;SDS011;6700;51.988;7.646;2022-09-13T03:43:12;6.10;;;5.50;;
13263;SDS011;6700;51.988;7.646;2022-09-13T03:46:03;7.17;;;6.10;;
13263;SDS011;6700;51.988;7.646;2022-09-13T03:48:34;7.67;;;6.87;;
13263;SDS011;6700;51.988;7.646;2022-09-13T03:51:04;10.87;;;5.93;;
13263;SDS011;6700;51.988;7.646;2022-09-13T03:53:32;9.70;;;6.63;;
13263;SDS011;6700;51.988;7.646;2022-09-13T03:56:17;6.70;;;6.07;;
13263;SDS011;6700;51.988;7.646;2022-09-13T03:58:46;6.60;;;5.90;;
13263;SDS011;6700;51.988;7.646;2022-09-13T04:01:15;6.40;;;5.80;;
13263;SDS011;6700;51.988;7.646;2022-09-13T04:03:46;10.27;;;7.20;;
13263;SDS011;6700;51.988;7.646;2022-09-13T04:06:13;7.00;;;6.30;;
13263;SDS011;6700;51.988;7.646;2022-09-13T04:08:40;7.00;;;6.30;;
13263;SDS011;6700;51.988;7.646;2022-09-13T04:11:07;8.87;;;6.30;;
13263;SDS011;6700;51.988;7.646;2022-09-13T04:13:35;7.10;;;6.30;;
13263;SDS011;6700;51.988;7.646;2022-09-13T04:16:03;9.67;;;7.00;;
13263;SDS011;6700;51.988;7.646;2022-09-13T04:18:31;7.83;;;6.80;;
13263;SDS011;6700;51.988;7.646;2022-09-13T04:20:59;10.00;;;6.90;;
13263;SDS011;6700;51.988;7.646;2022-09-13T04:23:27;11.77;;;7.07;;
13263;SDS011;6700;51.988;7.646;2022-09-13T04:25:59;13.13;;;7.47;;
13263;SDS011;6700;51.988;7.646;2022-09-13T04:28:29;7.87;;;6.20;;
13263;SDS011;6700;51.988;7.646;2022-09-13T04:30:56;9.23;;;6.23;;
13263;SDS011;6700;51.988;7.646;2022-09-13T04:33:23;7.30;;;6.47;;
13263;SDS011;6700;51.988;7.646;2022-09-13T04:35:56;7.27;;;6.27;;
13263;SDS011;6700;51.988;7.646;2022-09-13T04:38:25;10.63;;;6.53;;
13263;SDS011;6700;51.988;7.646;2022-09-13T04:40:53;7.47;;;6.50;;
13263;SDS011;6700;51.988;7.646;2022-09-13T04:43:21;10.27;;;6.67;;
13263;SDS011;6700;51.988;7.646;2022-09-13T04:45:49;9.37;;;7.23;;
13263;SDS011;6700;51.988;7.646;2022-09-13T04:48:16;7.77;;;6.93;;
13263;SDS011;6700;51.988;7.646;2022-09-13T04:50:43;8.63;;;7.17;;
13263;SDS011;6700;51.988;7.646;2022-09-13T04:53:10;7.03;;;6.33;;
13263;SDS011;6700;51.988;7.646;2022-09-13T04:55:37;8.33;;;6.60;;
13263;SDS011;6700;51.988;7.646;2022-09-13T04:58:04;9.17;;;6.83;;
13263;SDS011;6700;51.988;7.646;2022-09-13T05:00:31;11.90;;;6.93;;
13263;SDS011;6700;51.988;7.646;2022-09-13T05:02:59;10.47;;;7.33;;
13263;SDS011;6700;51.988;7.646;2022-09-13T05:05:27;8.47;;;7.17;;
13263;SDS011;6700;51.988;7.646;2022-09-13T05:07:56;12.27;;;7.60;;
13263;SDS011;6700;51.988;7.646;2022-09-13T05:10:23;12.43;;;7.03;;
13263;SDS011;6700;51.988;7.646;2022-09-13T05:12:52;11.57;;;7.03;;
13263;SDS011;6700;51.988;7.646;2022-09-13T05:15:19;9.67;;;7.23;;
13263;SDS011;6700;51.988;7.646;2022-09-13T05:17:47;13.00;;;8.20;;
13263;SDS011;6700;51.988;7.646;2022-09-13T05:20:15;7.90;;;7.10;;
13263;SDS011;6700;51.988;7.646;2022-09-13T05:22:42;9.10;;;7.13;;
13263;SDS011;6700;51.988;7.646;2022-09-13T05:25:08;9.53;;;7.07;;
13263;SDS011;6700;51.988;7.646;2022-09-13T05:27:36;6.73;;;6.03;;
13263;SDS011;6700;51.988;7.646;2022-09-13T05:30:03;7.97;;;7.00;;
13263;SDS011;6700;51.988;7.646;2022-09-13T05:32:33;8.43;;;7.43;;
13263;SDS011;6700;51.988;7.646;2022-09-13T05:34:59;8.23;;;6.67;;
13263;SDS011;6700;51.988;7.646;2022-09-13T05:37:26;7.90;;;6.87;;
13263;SDS011;6700;51.988;7.646;2022-09-13T05:39:53;8.83;;;7.37;;
13263;SDS011;6700;51.988;7.646;2022-09-13T05:42:38;11.50;;;7.07;;
13263;SDS011;6700;51.988;7.646;2022-09-13T05:45:05;8.63;;;7.17;;
13263;SDS011;6700;51.988;7.646;2022-09-13T05:47:32;9.80;;;7.27;;
13263;SDS011;6700;51.988;7.646;2022-09-13T05:49:58;7.93;;;6.30;;
13263;SDS011;6700;51.988;7.646;2022-09-13T05:52:36;8.13;;;6.13;;
13263;SDS011;6700;51.988;7.646;2022-09-13T05:55:03;9.10;;;6.73;;
13263;SDS011;6700;51.988;7.646;2022-09-13T05:57:30;8.40;;;6.77;;
13263;SDS011;6700;51.988;7.646;2022-09-13T05:59:57;7.30;;;6.57;;
13263;SDS011;6700;51.988;7.646;2022-09-13T06:02:23;10.77;;;6.90;;
13263;SDS011;6700;51.988;7.646;2022-09-13T06:04:50;9.67;;;6.53;;
13263;SDS011;6700;51.988;7.646;2022-09-13T06:07:17;7.97;;;6.90;;
13263;SDS011;6700;51.988;7.646;2022-09-13T06:09:44;9.90;;;6.80;;
13263;SDS011;6700;51.988;7.646;2022-09-13T06:12:11;8.50;;;6.57;;
13263;SDS011;6700;51.988;7.646;2022-09-13T06:14:37;11.43;;;7.10;;
13263;SDS011;6700;51.988;7.646;2022-09-13T06:17:04;9.33;;;6.83;;
13263;SDS011;6700;51.988;7.646;2022-09-13T06:19:31;9.77;;;6.53;;
13263;SDS011;6700;51.988;7.646;2022-09-13T06:21:58;12.33;;;7.47;;
13263;SDS011;6700;51.988;7.646;2022-09-13T06:24:25;7.63;;;6.60;;
13263;SDS011;6700;51.988;7.646;2022-09-13T06:26:51;10.03;;;6.47;;
13263;SDS011;6700;51.988;7.646;2022-09-13T06:29:19;11.53;;;7.90;;
13263;SDS011;6700;51.988;7.646;2022-09-13T06:31:46;9.13;;;6.77;;
13263;SDS011;6700;51.988;7.646;2022-09-13T06:34:13;8.73;;;7.27;;
13263;SDS011;6700;51.988;7.646;2022-09-13T06:36:41;9.70;;;6.53;;
13263;SDS011;6700;51.988;7.646;2022-09-13T06:39:08;10.17;;;6.87;;
13263;SDS011;6700;51.988;7.646;2022-09-13T06:41:35;9.43;;;6.70;;
13263;SDS011;6700;51.988;7.646;2022-09-13T06:44:03;7.37;;;6.67;;
13263;SDS011;6700;51.988;7.646;2022-09-13T06:46:33;11.20;;;7.23;;
13263;SDS011;6700;51.988;7.646;2022-09-13T06:49:01;9.03;;;7.17;;
13263;SDS011;6700;51.988;7.646;2022-09-13T06:51:30;8.23;;;7.13;;
13263;SDS011;6700;51.988;7.646;2022-09-13T06:53:58;8.83;;;6.63;;
13263;SDS011;6700;51.988;7.646;2022-09-13T06:56:29;11.50;;;7.53;;
13263;SDS011;6700;51.988;7.646;2022-09-13T06:58:58;7.53;;;6.73;;
13263;SDS011;6700;51.988;7.646;2022-09-13T07:01:36;10.67;;;7.40;;
13263;SDS011;6700;51.988;7.646;2022-09-13T07:04:09;10.37;;;7.40;;
13263;SDS011;6700;51.988;7.646;2022-09-13T07:06:41;11.27;;;7.93;;
13263;SDS011;6700;51.988;7.646;2022-09-13T07:09:11;9.43;;;7.17;;
13263;SDS011;6700;51.988;7.646;2022-09-13T07:11:43;8.37;;;6.97;;
13263;SDS011;6700;51.988;7.646;2022-09-13T07:14:16;10.00;;;7.30;;
13263;SDS011;6700;51.988;7.646;2022-09-13T07:16:45;8.90;;;7.30;;
13263;SDS011;6700;51.988;7.646;2022-09-13T07:19:13;8.57;;;7.73;;
13263;SDS011;6700;51.988;7.646;2022-09-13T07:21:42;9.20;;;8.30;;
13263;SDS011;6700;51.988;7.646;2022-09-13T07:24:09;9.43;;;8.47;;
13263;SDS011;6700;51.988;7.646;2022-09-13T07:26:36;13.63;;;7.33;;
13263;SDS011;6700;51.988;7.646;2022-09-13T07:29:04;10.80;;;8.40;;
13263;SDS011;6700;51.988;7.646;2022-09-13T07:31:37;8.93;;;8.00;;
13263;SDS011;6700;51.988;7.646;2022-09-13T07:34:06;10.23;;;7.63;;
13263;SDS011;6700;51.988;7.646;2022-09-13T07:36:37;9.10;;;8.07;;
13263;SDS011;6700;51.988;7.646;2022-09-13T07:39:04;14.68;;;8.30;;
13263;SDS011;6700;51.988;7.646;2022-09-13T07:41:33;12.68;;;8.05;;
13263;SDS011;6700;51.988;7.646;2022-09-13T07:44:00;8.77;;;7.83;;
13263;SDS011;6700;51.988;7.646;2022-09-13T07:46:28;10.38;;;7.78;;
13263;SDS011;6700;51.988;7.646;2022-09-13T07:48:59;11.35;;;7.88;;
13263;SDS011;6700;51.988;7.646;2022-09-13T07:51:28;8.95;;;7.88;;
13263;SDS011;6700;51.988;7.646;2022-09-13T07:53:57;9.48;;;8.00;;
13263;SDS011;6700;51.988;7.646;2022-09-13T07:56:33;9.65;;;8.27;;
13263;SDS011;6700;51.988;7.646;2022-09-13T07:59:02;11.68;;;8.30;;
13263;SDS011;6700;51.988;7.646;2022-09-13T08:01:34;14.77;;;9.52;;
13263;SDS011;6700;51.988;7.646;2022-09-13T08:04:04;11.32;;;9.48;;
13263;SDS011;6700;51.988;7.646;2022-09-13T08:06:36;12.38;;;9.27;;
13263;SDS011;6700;51.988;7.646;2022-09-13T08:09:04;10.98;;;9.02;;
13263;SDS011;6700;51.988;7.646;2022-09-13T08:11:33;9.05;;;8.15;;
13263;SDS011;6700;51.988;7.646;2022-09-13T08:14:03;12.52;;;8.80;;
13263;SDS011;6700;51.988;7.646;2022-09-13T08:16:31;11.32;;;10.15;;
13263;SDS011;6700;51.988;7.646;2022-09-13T08:18:59;12.43;;;9.45;;
13263;SDS011;6700;51.988;7.646;2022-09-13T08:21:33;12.95;;;10.27;;
13263;SDS011;6700;51.988;7.646;2022-09-13T08:24:01;12.73;;;10.20;;
13263;SDS011;6700;51.988;7.646;2022-09-13T08:26:30;14.52;;;10.00;;
13263;SDS011;6700;51.988;7.646;2022-09-13T08:28:59;11.95;;;10.75;;
13263;SDS011;6700;51.988;7.646;2022-09-13T08:31:27;13.27;;;10.68;;
13263;SDS011;6700;51.988;7.646;2022-09-13T08:33:55;15.25;;;10.32;;
13263;SDS011;6700;51.988;7.646;2022-09-13T08:36:23;10.88;;;9.73;;
13263;SDS011;6700;51.988;7.646;2022-09-13T08:38:54;11.63;;;10.00;;
13263;SDS011;6700;51.988;7.646;2022-09-13T08:44:14;12.40;;;9.20;;
13263;SDS011;6700;51.988;7.646;2022-09-13T08:46:58;12.05;;;10.75;;
13263;SDS011;6700;51.988;7.646;2022-09-13T08:49:35;14.80;;;10.55;;
13263;SDS011;6700;51.988;7.646;2022-09-13T08:52:32;13.98;;;12.15;;
13263;SDS011;6700;51.988;7.646;2022-09-13T08:55:14;12.95;;;11.60;;
13263;SDS011;6700;51.988;7.646;2022-09-13T08:58:03;24.90;;;12.13;;
13263;SDS011;6700;51.988;7.646;2022-09-13T09:00:40;12.85;;;11.57;;
13263;SDS011;6700;51.988;7.646;2022-09-13T09:06:00;15.52;;;12.45;;
13263;SDS011;6700;51.988;7.646;2022-09-13T09:08:39;17.15;;;12.95;;
13263;SDS011;6700;51.988;7.646;2022-09-13T09:11:30;15.63;;;12.50;;
13263;SDS011;6700;51.988;7.646;2022-09-13T09:14:31;15.48;;;12.65;;
13263;SDS011;6700;51.988;7.646;2022-09-13T09:17:03;18.88;;;12.70;;
13263;SDS011;6700;51.988;7.646;2022-09-13T09:19:36;14.38;;;12.88;;
13263;SDS011;6700;51.988;7.646;2022-09-13T09:22:19;14.88;;;12.68;;
13263;SDS011;6700;51.988;7.646;2022-09-13T09:24:52;14.80;;;12.30;;
13263;SDS011;6700;51.988;7.646;2022-09-13T09:27:21;18.02;;;12.57;;
13263;SDS011;6700;51.988;7.646;2022-09-13T09:29:49;12.23;;;10.68;;
13263;SDS011;6700;51.988;7.646;2022-09-13T09:32:24;11.40;;;10.02;;
13263;SDS011;6700;51.988;7.646;2022-09-13T09:37:43;12.88;;;8.60;;
13263;SDS011;6700;51.988;7.646;2022-09-13T09:40:15;13.18;;;9.52;;
13263;SDS011;6700;51.988;7.646;2022-09-13T09:42:44;10.85;;;7.90;;
13263;SDS011;6700;51.988;7.646;2022-09-13T09:47:58;10.80;;;9.27;;
13263;SDS011;6700;51.988;7.646;2022-09-13T09:50:32;13.00;;;9.30;;
13263;SDS011;6700;51.988;7.646;2022-09-13T09:55:56;13.25;;;10.18;;
13263;SDS011;6700;51.988;7.646;2022-09-13T09:58:48;17.27;;;11.02;;
13263;SDS011;6700;51.988;7.646;2022-09-13T10:06:37;15.55;;;12.13;;
13263;SDS011;6700;51.988;7.646;2022-09-13T10:09:06;13.48;;;10.57;;
13263;SDS011;6700;51.988;7.646;2022-09-13T10:11:50;12.90;;;11.02;;
13263;SDS011;6700;51.988;7.646;2022-09-13T10:20:02;14.18;;;10.98;;
13263;SDS011;6700;51.988;7.646;2022-09-13T10:22:38;13.02;;;11.18;;
13263;SDS011;6700;51.988;7.646;2022-09-13T10:25:14;14.90;;;11.15;;
13263;SDS011;6700;51.988;7.646;2022-09-13T10:27:48;13.35;;;10.18;;
13263;SDS011;6700;51.988;7.646;2022-09-13T10:32:59;9.60;;;8.60;;
13263;SDS011;6700;51.988;7.646;2022-09-13T10:35:28;11.75;;;10.38;;
13263;SDS011;6700;51.988;7.646;2022-09-13T10:37:55;9.63;;;8.02;;
13263;SDS011;6700;51.988;7.646;2022-09-13T10:40:26;8.98;;;8.07;;
13263;SDS011;6700;51.988;7.646;2022-09-13T10:43:05;10.65;;;9.52;;
13263;SDS011;6700;51.988;7.646;2022-09-13T10:45:41;8.82;;;7.93;;
13263;SDS011;6700;51.988;7.646;2022-09-13T10:48:12;9.73;;;8.73;;
13263;SDS011;6700;51.988;7.646;2022-09-13T10:51:03;14.13;;;9.30;;
13263;SDS011;6700;51.988;7.646;2022-09-13T10:56:04;11.10;;;9.93;;
13263;SDS011;6700;51.988;7.646;2022-09-13T10:58:43;12.60;;;10.30;;
13263;SDS011;6700;51.988;7.646;2022-09-13T11:12:03;12.80;;;10.50;;
13263;SDS011;6700;51.988;7.646;2022-09-13T11:26:43;11.52;;;9.27;;
13263;SDS011;6700;51.988;7.646;2022-09-13T11:29:36;14.57;;;10.32;;
13263;SDS011;6700;51.988;7.646;2022-09-13T11:46:06;13.40;;;10.25;;
13263;SDS011;6700;51.988;7.646;2022-09-13T11:54:25;10.15;;;9.02;;
13263;SDS011;6700;51.988;7.646;2022-09-13T11:56:50;10.80;;;9.07;;
13263;SDS011;6700;51.988;7.646;2022-09-13T12:02:17;13.18;;;9.73;;
13263;SDS011;6700;51.988;7.646;2022-09-13T12:05:05;9.15;;;8.35;;
13263;SDS011;6700;51.988;7.646;2022-09-13T12:10:26;12.95;;;9.07;;
13263;SDS011;6700;51.988;7.646;2022-09-13T12:13:25;9.10;;;8.13;;
13263;SDS011;6700;51.988;7.646;2022-09-13T12:16:01;10.38;;;7.85;;
13263;SDS011;6700;51.988;7.646;2022-09-13T12:18:41;9.85;;;8.20;;
13263;SDS011;6700;51.988;7.646;2022-09-13T12:21:22;9.80;;;6.90;;
13263;SDS011;6700;51.988;7.646;2022-09-13T12:31:43;8.93;;;6.80;;
13263;SDS011;6700;51.988;7.646;2022-09-13T12:34:19;8.15;;;6.65;;
13263;SDS011;6700;51.988;7.646;2022-09-13T12:37:00;6.88;;;6.18;;
13263;SDS011;6700;51.988;7.646;2022-09-13T12:39:56;7.20;;;6.47;;
13263;SDS011;6700;51.988;7.646;2022-09-13T12:42:53;6.00;;;5.32;;
13263;SDS011;6700;51.988;7.646;2022-09-13T12:51:23;6.80;;;5.22;;
13263;SDS011;6700;51.988;7.646;2022-09-13T12:57:00;6.15;;;5.20;;
13263;SDS011;6700;51.988;7.646;2022-09-13T13:02:44;6.10;;;4.18;;
13263;SDS011;6700;51.988;7.646;2022-09-13T13:05:32;8.88;;;4.53;;
13263;SDS011;6700;51.988;7.646;2022-09-13T13:18:51;4.75;;;3.90;;
13263;SDS011;6700;51.988;7.646;2022-09-13T13:26:50;3.10;;;2.80;;
13263;SDS011;6700;51.988;7.646;2022-09-13T13:29:40;5.00;;;3.50;;
13263;SDS011;6700;51.988;7.646;2022-09-13T13:32:08;5.00;;;3.40;;
13263;SDS011;6700;51.988;7.646;2022-09-13T13:39:48;2.92;;;2.67;;
13263;SDS011;6700;51.988;7.646;2022-09-13T13:42:35;3.65;;;3.35;;
13263;SDS011;6700;51.988;7.646;2022-09-13T13:45:12;5.28;;;3.58;;
13263;SDS011;6700;51.988;7.646;2022-09-13T13:48:05;5.20;;;2.75;;
13263;SDS011;6700;51.988;7.646;2022-09-13T13:50:45;5.43;;;3.05;;
13263;SDS011;6700;51.988;7.646;2022-09-13T13:53:37;3.88;;;3.20;;
13263;SDS011;6700;51.988;7.646;2022-09-13T13:56:14;6.53;;;3.58;;
13263;SDS011;6700;51.988;7.646;2022-09-13T14:01:48;3.60;;;3.28;;
13263;SDS011;6700;51.988;7.646;2022-09-13T14:07:35;5.70;;;3.67;;
13263;SDS011;6700;51.988;7.646;2022-09-13T14:10:46;4.07;;;3.13;;
13263;SDS011;6700;51.988;7.646;2022-09-13T14:19:14;4.50;;;2.70;;
13263;SDS011;6700;51.988;7.646;2022-09-13T14:22:05;4.50;;;3.47;;
13263;SDS011;6700;51.988;7.646;2022-09-13T14:24:36;4.22;;;3.45;;
13263;SDS011;6700;51.988;7.646;2022-09-13T14:27:04;4.72;;;2.90;;
13263;SDS011;6700;51.988;7.646;2022-09-13T14:29:34;5.78;;;2.95;;
13263;SDS011;6700;51.988;7.646;2022-09-13T14:32:05;3.00;;;2.78;;
13263;SDS011;6700;51.988;7.646;2022-09-13T14:34:48;3.20;;;2.33;;
13263;SDS011;6700;51.988;7.646;2022-09-13T14:37:18;4.68;;;2.83;;
13263;SDS011;6700;51.988;7.646;2022-09-13T14:39:53;3.25;;;2.38;;
13263;SDS011;6700;51.988;7.646;2022-09-13T14:42:40;4.03;;;2.45;;
13263;SDS011;6700;51.988;7.646;2022-09-13T14:45:52;2.47;;;2.25;;
13263;SDS011;6700;51.988;7.646;2022-09-13T14:50:35;5.70;;;2.47;;
13263;SDS011;6700;51.988;7.646;2022-09-13T14:53:06;3.70;;;2.10;;
13263;SDS011;6700;51.988;7.646;2022-09-13T14:55:41;2.33;;;1.88;;
13263;SDS011;6700;51.988;7.646;2022-09-13T14:58:14;2.13;;;1.88;;
13263;SDS011;6700;51.988;7.646;2022-09-13T15:00:48;2.80;;;1.95;;
13263;SDS011;6700;51.988;7.646;2022-09-13T15:03:26;2.05;;;1.90;;
13263;SDS011;6700;51.988;7.646;2022-09-13T15:05:54;2.30;;;1.67;;
13263;SDS011;6700;51.988;7.646;2022-09-13T15:08:42;1.88;;;1.77;;
13263;SDS011;6700;51.988;7.646;2022-09-13T15:11:13;2.60;;;2.20;;
13263;SDS011;6700;51.988;7.646;2022-09-13T15:13:59;3.13;;;1.83;;
13263;SDS011;6700;51.988;7.646;2022-09-13T15:16:50;3.05;;;1.90;;
13263;SDS011;6700;51.988;7.646;2022-09-13T15:25:16;1.90;;;1.80;;
13263;SDS011;6700;51.988;7.646;2022-09-13T15:27:44;2.30;;;2.00;;
13263;SDS011;6700;51.988;7.646;2022-09-13T15:30:26;1.50;;;1.40;;
13263;SDS011;6700;51.988;7.646;2022-09-13T15:35:36;4.47;;;1.88;;
13263;SDS011;6700;51.988;7.646;2022-09-13T15:40:57;1.92;;;1.73;;
13263;SDS011;6700;51.988;7.646;2022-09-13T15:43:38;2.05;;;1.95;;
13263;SDS011;6700;51.988;7.646;2022-09-13T15:46:05;6.32;;;1.63;;
13263;SDS011;6700;51.988;7.646;2022-09-13T15:48:32;3.40;;;2.00;;
13263;SDS011;6700;51.988;7.646;2022-09-13T15:51:11;1.60;;;1.50;;
13263;SDS011;6700;51.988;7.646;2022-09-13T15:53:40;1.58;;;1.48;;
13263;SDS011;6700;51.988;7.646;2022-09-13T15:56:11;2.53;;;1.80;;
13263;SDS011;6700;51.988;7.646;2022-09-13T15:58:40;1.50;;;1.40;;
13263;SDS011;6700;51.988;7.646;2022-09-13T16:01:09;1.80;;;1.30;;
13263;SDS011;6700;51.988;7.646;2022-09-13T16:03:40;1.25;;;1.15;;
13263;SDS011;6700;51.988;7.646;2022-09-13T16:06:08;1.95;;;1.40;;
13263;SDS011;6700;51.988;7.646;2022-09-13T16:08:38;4.80;;;1.25;;
13263;SDS011;6700;51.988;7.646;2022-09-13T16:11:05;2.90;;;1.45;;
13263;SDS011;6700;51.988;7.646;2022-09-13T16:13:33;2.67;;;1.38;;
13263;SDS011;6700;51.988;7.646;2022-09-13T16:16:01;2.63;;;1.15;;
13263;SDS011;6700;51.988;7.646;2022-09-13T16:18:28;1.63;;;1.30;;
13263;SDS011;6700;51.988;7.646;2022-09-13T16:20:55;2.35;;;1.23;;
13263;SDS011;6700;51.988;7.646;2022-09-13T16:23:22;4.22;;;1.40;;
13263;SDS011;6700;51.988;7.646;2022-09-13T16:25:50;2.45;;;1.40;;
13263;SDS011;6700;51.988;7.646;2022-09-13T16:28:20;7.35;;;4.50;;
13263;SDS011;6700;51.988;7.646;2022-09-13T16:30:47;7.40;;;4.05;;
13263;SDS011;6700;51.988;7.646;2022-09-13T16:33:14;6.07;;;5.28;;
13263;SDS011;6700;51.988;7.646;2022-09-13T16:35:41;2.22;;;1.35;;
13263;SDS011;6700;51.988;7.646;2022-09-13T16:38:08;1.30;;;1.20;;
13263;SDS011;6700;51.988;7.646;2022-09-13T16:40:39;2.63;;;1.30;;
13263;SDS011;6700;51.988;7.646;2022-09-13T16:43:10;2.85;;;1.15;;
13263;SDS011;6700;51.988;7.646;2022-09-13T16:45:38;2.33;;;1.40;;
13263;SDS011;6700;51.988;7.646;2022-09-13T16:48:06;4.47;;;3.30;;
13263;SDS011;6700;51.988;7.646;2022-09-13T16:50:34;9.00;;;6.10;;
13263;SDS011;6700;51.988;7.646;2022-09-13T16:53:01;2.60;;;2.40;;
13263;SDS011;6700;51.988;7.646;2022-09-13T16:55:29;1.10;;;1.05;;
13263;SDS011;6700;51.988;7.646;2022-09-13T16:58:00;1.17;;;1.17;;
13263;SDS011;6700;51.988;7.646;2022-09-13T17:00:27;1.20;;;0.68;;
13263;SDS011;6700;51.988;7.646;2022-09-13T17:02:55;16.50;;;14.77;;
13263;SDS011;6700;51.988;7.646;2022-09-13T17:05:22;3.55;;;3.08;;
13263;SDS011;6700;51.988;7.646;2022-09-13T17:07:50;3.67;;;2.78;;
13263;SDS011;6700;51.988;7.646;2022-09-13T17:10:18;10.82;;;9.50;;
13263;SDS011;6700;51.988;7.646;2022-09-13T17:12:46;5.60;;;4.05;;
13263;SDS011;6700;51.988;7.646;2022-09-13T17:15:14;4.10;;;1.75;;
13263;SDS011;6700;51.988;7.646;2022-09-13T17:17:41;3.67;;;2.13;;
13263;SDS011;6700;51.988;7.646;2022-09-13T17:20:08;1.40;;;1.30;;
13263;SDS011;6700;51.988;7.646;2022-09-13T17:22:36;2.58;;;2.30;;
13263;SDS011;6700;51.988;7.646;2022-09-13T17:25:03;2.83;;;2.60;;
13263;SDS011;6700;51.988;7.646;2022-09-13T17:27:32;2.47;;;2.10;;
13263;SDS011;6700;51.988;7.646;2022-09-13T17:29:59;6.43;;;3.58;;
13263;SDS011;6700;51.988;7.646;2022-09-13T17:32:30;3.67;;;2.20;;
13263;SDS011;6700;51.988;7.646;2022-09-13T17:34:56;3.13;;;1.70;;
13263;SDS011;6700;51.988;7.646;2022-09-13T17:37:24;3.63;;;1.77;;
13263;SDS011;6700;51.988;7.646;2022-09-13T17:39:52;2.63;;;1.38;;
13263;SDS011;6700;51.988;7.646;2022-09-13T17:42:19;2.58;;;1.40;;
13263;SDS011;6700;51.988;7.646;2022-09-13T17:44:48;2.42;;;1.50;;
13263;SDS011;6700;51.988;7.646;2022-09-13T17:47:16;2.33;;;1.40;;
13263;SDS011;6700;51.988;7.646;2022-09-13T17:49:43;5.55;;;2.08;;
13263;SDS011;6700;51.988;7.646;2022-09-13T17:52:13;1.83;;;1.65;;
13263;SDS011;6700;51.988;7.646;2022-09-13T17:54:40;1.85;;;1.40;;
13263;SDS011;6700;51.988;7.646;2022-09-13T17:57:06;2.83;;;1.42;;
13263;SDS011;6700;51.988;7.646;2022-09-13T17:59:36;5.00;;;2.65;;
13263;SDS011;6700;51.988;7.646;2022-09-13T18:02:03;3.42;;;1.30;;
13263;SDS011;6700;51.988;7.646;2022-09-13T18:04:30;2.30;;;1.85;;
13263;SDS011;6700;51.988;7.646;2022-09-13T18:06:57;2.13;;;1.48;;
13263;SDS011;6700;51.988;7.646;2022-09-13T18:09:24;2.77;;;1.40;;
13263;SDS011;6700;51.988;7.646;2022-09-13T18:11:52;4.15;;;2.70;;
13263;SDS011;6700;51.988;7.646;2022-09-13T18:14:18;2.93;;;2.30;;
13263;SDS011;6700;51.988;7.646;2022-09-13T18:16:45;6.60;;;1.77;;
13263;SDS011;6700;51.988;7.646;2022-09-13T18:19:17;3.13;;;1.50;;
13263;SDS011;6700;51.988;7.646;2022-09-13T18:22:03;5.28;;;1.05;;
13263;SDS011;6700;51.988;7.646;2022-09-13T18:24:30;5.60;;;1.60;;
13263;SDS011;6700;51.988;7.646;2022-09-13T18:26:59;4.00;;;1.85;;
13263;SDS011;6700;51.988;7.646;2022-09-13T18:29:26;5.50;;;1.63;;
13263;SDS011;6700;51.988;7.646;2022-09-13T18:31:54;5.37;;;2.57;;
13263;SDS011;6700;51.988;7.646;2022-09-13T18:34:21;5.37;;;2.10;;